Glencoe, Illinois
Current Conditions -  °F | °C
As of 2:52 AM on Tuesday 21 Oct 2014 (Local Time) from KPWK Reporting Station
Overcast Overcast  
Wind Chill: 51°   Ceiling: 4900
Heat Index: 51°   Visibility: 10mi
Dew Point: 42°   Wind: 7mph
Humidity: 71%   Direction: 340°NNW
Pressure: 30.03"   Gusts: NA
Location:  42.13°N, 87.76°W
Report Text: KPWK 210752Z AUTO 34006KT 10SM FEW029 SCT035 OVC049 11/06 A3003 RMK AO2 SLP168 T01060056
Loading
Personal Weather Stations






























Interactive Weather Map
Tropical Storm Tracking
New forecast layout! Learn more

10-Day Weather Forecast

Advertisements
Track Severe Weather on mobile